sensor_id;sensor_type;location;lat;lon;timestamp;pressure;altitude;pressure_sealevel;temperature;humidity
17615;BME280;8926;49.720;6.576;2023-07-24T00:01:56;98863.44;;;20.77;69.22
17615;BME280;8926;49.720;6.576;2023-07-24T00:04:21;98853.81;;;20.76;69.07
17615;BME280;8926;49.720;6.576;2023-07-24T00:06:47;98855.81;;;20.74;68.98
17615;BME280;8926;49.720;6.576;2023-07-24T00:09:12;98858.97;;;20.70;69.13
17615;BME280;8926;49.720;6.576;2023-07-24T00:11:37;98859.16;;;20.68;68.60
17615;BME280;8926;49.720;6.576;2023-07-24T00:14:03;98849.53;;;20.67;69.07
17615;BME280;8926;49.720;6.576;2023-07-24T00:16:28;98856.50;;;20.68;68.43
17615;BME280;8926;49.720;6.576;2023-07-24T00:18:53;98844.22;;;20.67;69.21
17615;BME280;8926;49.720;6.576;2023-07-24T00:21:19;98832.78;;;20.66;69.36
17615;BME280;8926;49.720;6.576;2023-07-24T00:23:44;98810.06;;;20.64;70.32
17615;BME280;8926;49.720;6.576;2023-07-24T00:26:09;98794.78;;;20.66;70.00
17615;BME280;8926;49.720;6.576;2023-07-24T00:28:34;98789.19;;;20.61;70.16
17615;BME280;8926;49.720;6.576;2023-07-24T00:31:00;98806.78;;;20.54;70.69
17615;BME280;8926;49.720;6.576;2023-07-24T00:33:25;98818.59;;;20.51;71.22
17615;BME280;8926;49.720;6.576;2023-07-24T00:35:50;98810.44;;;20.53;71.72
17615;BME280;8926;49.720;6.576;2023-07-24T00:38:16;98812.09;;;20.54;71.07
17615;BME280;8926;49.720;6.576;2023-07-24T00:40:41;98795.34;;;20.53;71.19
17615;BME280;8926;49.720;6.576;2023-07-24T00:43:06;98801.47;;;20.54;71.59
17615;BME280;8926;49.720;6.576;2023-07-24T00:45:32;98806.78;;;20.54;70.96
17615;BME280;8926;49.720;6.576;2023-07-24T00:47:58;98805.13;;;20.53;70.50
17615;BME280;8926;49.720;6.576;2023-07-24T00:50:24;98808.00;;;20.51;71.05
17615;BME280;8926;49.720;6.576;2023-07-24T00:52:50;98807.44;;;20.56;70.01
17615;BME280;8926;49.720;6.576;2023-07-24T00:55:15;98804.78;;;20.56;70.00
17615;BME280;8926;49.720;6.576;2023-07-24T00:57:42;98808.94;;;20.58;69.74
17615;BME280;8926;49.720;6.576;2023-07-24T01:00:07;98807.75;;;20.61;69.78
17615;BME280;8926;49.720;6.576;2023-07-24T01:02:34;98806.94;;;20.60;69.53
17615;BME280;8926;49.720;6.576;2023-07-24T01:04:59;98807.75;;;20.61;69.71
17615;BME280;8926;49.720;6.576;2023-07-24T01:07:25;98802.75;;;20.66;69.33
17615;BME280;8926;49.720;6.576;2023-07-24T01:09:50;98802.06;;;20.72;67.89
17615;BME280;8926;49.720;6.576;2023-07-24T01:12:32;98804.03;;;20.78;67.74
17615;BME280;8926;49.720;6.576;2023-07-24T01:15:13;98800.00;;;20.82;68.01
17615;BME280;8926;49.720;6.576;2023-07-24T01:17:45;98802.22;;;20.79;68.88
17615;BME280;8926;49.720;6.576;2023-07-24T01:20:15;98809.06;;;20.65;69.94
17615;BME280;8926;49.720;6.576;2023-07-24T01:25:35;98810.09;;;20.56;69.76
17615;BME280;8926;49.720;6.576;2023-07-24T01:28:01;98816.13;;;20.50;71.00
17615;BME280;8926;49.720;6.576;2023-07-24T01:30:26;98820.94;;;20.46;72.49
17615;BME280;8926;49.720;6.576;2023-07-24T01:32:51;98818.28;;;20.46;72.82
17615;BME280;8926;49.720;6.576;2023-07-24T01:35:17;98834.03;;;20.48;73.19
17615;BME280;8926;49.720;6.576;2023-07-24T01:37:43;98836.69;;;20.48;73.34
17615;BME280;8926;49.720;6.576;2023-07-24T01:40:10;98834.03;;;20.48;73.58
17615;BME280;8926;49.720;6.576;2023-07-24T01:42:36;98834.88;;;20.48;73.85
17615;BME280;8926;49.720;6.576;2023-07-24T01:45:03;98827.06;;;20.47;74.53
17615;BME280;8926;49.720;6.576;2023-07-24T01:47:28;98816.81;;;20.44;74.18
17615;BME280;8926;49.720;6.576;2023-07-24T01:49:55;98824.44;;;20.39;73.26
17615;BME280;8926;49.720;6.576;2023-07-24T01:52:20;98814.16;;;20.36;72.74
17615;BME280;8926;49.720;6.576;2023-07-24T01:54:45;98813.66;;;20.32;72.37
17615;BME280;8926;49.720;6.576;2023-07-24T01:57:11;98813.66;;;20.32;71.85
17615;BME280;8926;49.720;6.576;2023-07-24T01:59:36;98807.53;;;20.31;72.37
17615;BME280;8926;49.720;6.576;2023-07-24T02:02:02;98797.25;;;20.28;72.11
17615;BME280;8926;49.720;6.576;2023-07-24T02:04:27;98774.03;;;20.30;72.61
17615;BME280;8926;49.720;6.576;2023-07-24T02:06:52;98767.06;;;20.29;71.22
17615;BME280;8926;49.720;6.576;2023-07-24T02:09:18;98756.19;;;20.24;70.82
17615;BME280;8926;49.720;6.576;2023-07-24T02:11:43;98737.97;;;20.21;70.99
17615;BME280;8926;49.720;6.576;2023-07-24T02:14:09;98737.31;;;20.19;71.06
17615;BME280;8926;49.720;6.576;2023-07-24T02:16:35;98757.88;;;20.17;70.79
17615;BME280;8926;49.720;6.576;2023-07-24T02:19:00;98738.97;;;20.20;70.62
17615;BME280;8926;49.720;6.576;2023-07-24T02:21:26;98733.97;;;20.25;70.60
17615;BME280;8926;49.720;6.576;2023-07-24T02:23:51;98732.25;;;20.32;69.88
17615;BME280;8926;49.720;6.576;2023-07-24T02:26:16;98741.38;;;20.38;69.14
17615;BME280;8926;49.720;6.576;2023-07-24T02:28:41;98750.47;;;20.44;68.94
17615;BME280;8926;49.720;6.576;2023-07-24T02:31:07;98736.88;;;20.47;68.68
17615;BME280;8926;49.720;6.576;2023-07-24T02:33:32;98732.88;;;20.51;68.36
17615;BME280;8926;49.720;6.576;2023-07-24T02:35:57;98725.19;;;20.56;68.41
17615;BME280;8926;49.720;6.576;2023-07-24T02:38:23;98720.34;;;20.59;68.56
17615;BME280;8926;49.720;6.576;2023-07-24T02:40:48;98713.88;;;20.62;68.21
17615;BME280;8926;49.720;6.576;2023-07-24T02:43:14;98712.69;;;20.64;68.27
17615;BME280;8926;49.720;6.576;2023-07-24T02:45:40;98708.22;;;20.65;68.09
17615;BME280;8926;49.720;6.576;2023-07-24T02:48:05;98700.25;;;20.65;67.90
17615;BME280;8926;49.720;6.576;2023-07-24T02:50:32;98709.03;;;20.65;68.14
17615;BME280;8926;49.720;6.576;2023-07-24T02:52:58;98707.72;;;20.61;67.78
17615;BME280;8926;49.720;6.576;2023-07-24T02:55:23;98705.25;;;20.60;67.97
17615;BME280;8926;49.720;6.576;2023-07-24T02:57:50;98703.59;;;20.59;68.12
17615;BME280;8926;49.720;6.576;2023-07-24T03:00:15;98696.63;;;20.58;67.79
17615;BME280;8926;49.720;6.576;2023-07-24T03:02:41;98699.94;;;20.60;68.02
17615;BME280;8926;49.720;6.576;2023-07-24T03:05:06;98698.28;;;20.59;68.15
17615;BME280;8926;49.720;6.576;2023-07-24T03:07:32;98701.28;;;20.56;68.23
17615;BME280;8926;49.720;6.576;2023-07-24T03:09:57;98705.94;;;20.54;68.39
17615;BME280;8926;49.720;6.576;2023-07-24T03:12:23;98712.81;;;20.48;67.97
17615;BME280;8926;49.720;6.576;2023-07-24T03:14:48;98701.72;;;20.45;68.56
17615;BME280;8926;49.720;6.576;2023-07-24T03:17:14;98693.09;;;20.43;68.39
17615;BME280;8926;49.720;6.576;2023-07-24T03:19:40;98684.00;;;20.37;68.46
17615;BME280;8926;49.720;6.576;2023-07-24T03:22:06;98685.16;;;20.34;68.86
17615;BME280;8926;49.720;6.576;2023-07-24T03:24:31;98684.69;;;20.31;69.39
17615;BME280;8926;49.720;6.576;2023-07-24T03:26:56;98687.88;;;20.26;68.94
17615;BME280;8926;49.720;6.576;2023-07-24T03:29:22;98680.53;;;20.28;69.15
17615;BME280;8926;49.720;6.576;2023-07-24T03:31:47;98678.53;;;20.30;69.17
17615;BME280;8926;49.720;6.576;2023-07-24T03:34:12;98674.41;;;20.28;69.03
17615;BME280;8926;49.720;6.576;2023-07-24T03:36:38;98670.31;;;20.25;69.07
17615;BME280;8926;49.720;6.576;2023-07-24T03:39:06;98650.75;;;20.26;69.26
17615;BME280;8926;49.720;6.576;2023-07-24T03:41:32;98654.41;;;20.25;68.76
17615;BME280;8926;49.720;6.576;2023-07-24T03:43:57;98655.56;;;20.23;68.79
17615;BME280;8926;49.720;6.576;2023-07-24T03:46:22;98662.03;;;20.20;69.12
17615;BME280;8926;49.720;6.576;2023-07-24T03:48:47;98654.75;;;20.22;68.68
17615;BME280;8926;49.720;6.576;2023-07-24T03:51:15;98651.09;;;20.23;69.37
17615;BME280;8926;49.720;6.576;2023-07-24T03:53:40;98655.00;;;20.27;69.01
17615;BME280;8926;49.720;6.576;2023-07-24T03:56:05;98667.94;;;20.30;69.00
17615;BME280;8926;49.720;6.576;2023-07-24T03:58:30;98676.53;;;20.32;68.66
17615;BME280;8926;49.720;6.576;2023-07-24T04:00:56;98677.38;;;20.33;68.69
17615;BME280;8926;49.720;6.576;2023-07-24T04:03:21;98671.88;;;20.34;68.61
17615;BME280;8926;49.720;6.576;2023-07-24T04:05:46;98671.56;;;20.38;68.80
17615;BME280;8926;49.720;6.576;2023-07-24T04:08:12;98672.88;;;20.42;68.21
17615;BME280;8926;49.720;6.576;2023-07-24T04:10:37;98689.28;;;20.45;67.93
17615;BME280;8926;49.720;6.576;2023-07-24T04:13:02;98690.09;;;20.46;68.03
17615;BME280;8926;49.720;6.576;2023-07-24T04:15:27;98694.06;;;20.50;67.82
17615;BME280;8926;49.720;6.576;2023-07-24T04:17:53;98701.03;;;20.51;68.36
17615;BME280;8926;49.720;6.576;2023-07-24T04:20:18;98701.66;;;20.53;68.04
17615;BME280;8926;49.720;6.576;2023-07-24T04:22:43;98695.34;;;20.54;67.95
17615;BME280;8926;49.720;6.576;2023-07-24T04:25:08;98699.38;;;20.50;68.19
17615;BME280;8926;49.720;6.576;2023-07-24T04:27:34;98697.88;;;20.47;68.38
17615;BME280;8926;49.720;6.576;2023-07-24T04:29:59;98706.69;;;20.48;67.75
17615;BME280;8926;49.720;6.576;2023-07-24T04:32:26;98707.69;;;20.47;68.13
17615;BME280;8926;49.720;6.576;2023-07-24T04:34:52;98705.19;;;20.45;68.41
17615;BME280;8926;49.720;6.576;2023-07-24T04:37:17;98698.25;;;20.44;68.63
17615;BME280;8926;49.720;6.576;2023-07-24T04:39:43;98694.50;;;20.53;68.49
17615;BME280;8926;49.720;6.576;2023-07-24T04:42:08;98698.94;;;20.61;67.82
17615;BME280;8926;49.720;6.576;2023-07-24T04:44:33;98685.97;;;20.66;67.90
17615;BME280;8926;49.720;6.576;2023-07-24T04:46:59;98682.63;;;20.72;67.08
17615;BME280;8926;49.720;6.576;2023-07-24T04:49:24;98679.88;;;20.80;67.49
17615;BME280;8926;49.720;6.576;2023-07-24T04:51:50;98689.31;;;20.83;67.28
17615;BME280;8926;49.720;6.576;2023-07-24T04:54:17;98683.84;;;20.84;67.09
17615;BME280;8926;49.720;6.576;2023-07-24T04:56:42;98672.22;;;20.85;67.28
17615;BME280;8926;49.720;6.576;2023-07-24T04:59:08;98679.00;;;20.88;67.13
17615;BME280;8926;49.720;6.576;2023-07-24T05:01:33;98670.22;;;20.87;67.28
17615;BME280;8926;49.720;6.576;2023-07-24T05:03:58;98666.19;;;20.91;67.15
17615;BME280;8926;49.720;6.576;2023-07-24T05:06:23;98653.56;;;20.93;67.27
17615;BME280;8926;49.720;6.576;2023-07-24T05:08:49;98662.81;;;20.97;66.71
17615;BME280;8926;49.720;6.576;2023-07-24T05:11:14;98664.47;;;20.98;66.90
17615;BME280;8926;49.720;6.576;2023-07-24T05:13:39;98670.78;;;20.97;67.16
17615;BME280;8926;49.720;6.576;2023-07-24T05:16:05;98679.41;;;20.99;67.59
17615;BME280;8926;49.720;6.576;2023-07-24T05:18:30;98675.47;;;20.95;68.42
17615;BME280;8926;49.720;6.576;2023-07-24T05:20:55;98664.53;;;20.90;68.87
17615;BME280;8926;49.720;6.576;2023-07-24T05:23:20;98659.94;;;20.84;69.42
17615;BME280;8926;49.720;6.576;2023-07-24T05:25:46;98661.59;;;20.85;68.55
17615;BME280;8926;49.720;6.576;2023-07-24T05:28:14;98669.38;;;20.87;68.05
17615;BME280;8926;49.720;6.576;2023-07-24T05:30:40;98662.06;;;20.89;68.03
17615;BME280;8926;49.720;6.576;2023-07-24T05:33:05;98658.88;;;20.93;68.51
17615;BME280;8926;49.720;6.576;2023-07-24T05:35:30;98661.00;;;20.98;67.73
17615;BME280;8926;49.720;6.576;2023-07-24T05:37:55;98672.91;;;21.02;67.95
17615;BME280;8926;49.720;6.576;2023-07-24T05:40:21;98678.06;;;21.04;68.04
17615;BME280;8926;49.720;6.576;2023-07-24T05:42:46;98671.75;;;21.05;67.64
17615;BME280;8926;49.720;6.576;2023-07-24T05:45:12;98670.91;;;21.04;67.42
17615;BME280;8926;49.720;6.576;2023-07-24T05:47:39;98680.72;;;21.04;67.65
17615;BME280;8926;49.720;6.576;2023-07-24T05:50:05;98680.72;;;21.04;68.14
17615;BME280;8926;49.720;6.576;2023-07-24T05:52:30;98678.06;;;21.04;68.50
17615;BME280;8926;49.720;6.576;2023-07-24T05:54:56;98677.31;;;21.10;68.25
17615;BME280;8926;49.720;6.576;2023-07-24T05:57:21;98684.44;;;21.09;68.53
17615;BME280;8926;49.720;6.576;2023-07-24T05:59:46;98676.94;;;21.13;68.21
17615;BME280;8926;49.720;6.576;2023-07-24T06:02:11;98683.56;;;21.17;68.49
17615;BME280;8926;49.720;6.576;2023-07-24T06:04:37;98690.84;;;21.23;68.45
17615;BME280;8926;49.720;6.576;2023-07-24T06:07:02;98681.50;;;21.27;67.16
17615;BME280;8926;49.720;6.576;2023-07-24T06:09:27;98691.78;;;21.30;67.79
17615;BME280;8926;49.720;6.576;2023-07-24T06:11:53;98692.88;;;21.36;67.85
17615;BME280;8926;49.720;6.576;2023-07-24T06:14:18;98700.94;;;21.42;67.28
17615;BME280;8926;49.720;6.576;2023-07-24T06:16:44;98701.41;;;21.46;66.44
17615;BME280;8926;49.720;6.576;2023-07-24T06:19:09;98699.84;;;21.51;66.00
17615;BME280;8926;49.720;6.576;2023-07-24T06:21:34;98690.53;;;21.55;65.97
17615;BME280;8926;49.720;6.576;2023-07-24T06:23:59;98697.19;;;21.66;66.29
17615;BME280;8926;49.720;6.576;2023-07-24T06:26:25;98686.38;;;21.82;65.59
17615;BME280;8926;49.720;6.576;2023-07-24T06:28:50;98681.06;;;21.82;64.02
17615;BME280;8926;49.720;6.576;2023-07-24T06:31:15;98688.59;;;21.79;62.36
17615;BME280;8926;49.720;6.576;2023-07-24T06:33:40;98689.97;;;21.75;62.83
17615;BME280;8926;49.720;6.576;2023-07-24T06:36:09;98688.66;;;21.71;62.68
17615;BME280;8926;49.720;6.576;2023-07-24T06:38:35;98671.81;;;21.63;62.40
17615;BME280;8926;49.720;6.576;2023-07-24T06:41:00;98676.47;;;21.61;62.32
17615;BME280;8926;49.720;6.576;2023-07-24T06:43:26;98661.16;;;21.63;62.65
17615;BME280;8926;49.720;6.576;2023-07-24T06:45:52;98658.41;;;21.72;62.44
17615;BME280;8926;49.720;6.576;2023-07-24T06:48:18;98661.34;;;21.77;62.12
17615;BME280;8926;49.720;6.576;2023-07-24T06:50:43;98666.31;;;21.80;62.09
17615;BME280;8926;49.720;6.576;2023-07-24T06:53:08;98653.72;;;21.88;61.22
17615;BME280;8926;49.720;6.576;2023-07-24T06:55:33;98656.66;;;21.93;61.50
17615;BME280;8926;49.720;6.576;2023-07-24T06:57:59;98630.88;;;21.94;61.39
17615;BME280;8926;49.720;6.576;2023-07-24T07:00:24;98652.28;;;22.00;61.59
17615;BME280;8926;49.720;6.576;2023-07-24T07:02:49;98685.00;;;22.01;61.52
17615;BME280;8926;49.720;6.576;2023-07-24T07:05:15;98675.03;;;22.03;61.57
17615;BME280;8926;49.720;6.576;2023-07-24T07:07:40;98656.03;;;22.06;61.26
17615;BME280;8926;49.720;6.576;2023-07-24T07:10:06;98659.56;;;22.13;61.14
17615;BME280;8926;49.720;6.576;2023-07-24T07:12:31;98661.94;;;22.23;60.96
17615;BME280;8926;49.720;6.576;2023-07-24T07:14:56;98659.47;;;22.21;60.67
17615;BME280;8926;49.720;6.576;2023-07-24T07:17:21;98673.03;;;22.26;60.72
17615;BME280;8926;49.720;6.576;2023-07-24T07:19:47;98662.84;;;22.30;60.74
17615;BME280;8926;49.720;6.576;2023-07-24T07:22:12;98663.34;;;22.40;60.42
17615;BME280;8926;49.720;6.576;2023-07-24T07:24:37;98669.63;;;22.54;60.48
17615;BME280;8926;49.720;6.576;2023-07-24T07:27:03;98665.19;;;22.61;60.25
17615;BME280;8926;49.720;6.576;2023-07-24T07:29:28;98660.81;;;22.75;60.09
17615;BME280;8926;49.720;6.576;2023-07-24T07:31:53;98674.31;;;22.73;59.78
17615;BME280;8926;49.720;6.576;2023-07-24T07:34:19;98669.63;;;22.75;59.86
17615;BME280;8926;49.720;6.576;2023-07-24T07:36:44;98664.88;;;22.71;59.48
17615;BME280;8926;49.720;6.576;2023-07-24T07:39:09;98667.34;;;22.72;59.51
17615;BME280;8926;49.720;6.576;2023-07-24T07:41:35;98671.78;;;22.65;59.43
17615;BME280;8926;49.720;6.576;2023-07-24T07:44:00;98676.63;;;22.55;59.66
17615;BME280;8926;49.720;6.576;2023-07-24T07:46:25;98673.81;;;22.63;58.98
17615;BME280;8926;49.720;6.576;2023-07-24T07:48:51;98683.69;;;22.69;59.32
17615;BME280;8926;49.720;6.576;2023-07-24T07:51:16;98659.75;;;22.69;59.03
17615;BME280;8926;49.720;6.576;2023-07-24T07:53:41;98640.66;;;22.65;59.22
17615;BME280;8926;49.720;6.576;2023-07-24T07:56:07;98637.31;;;22.57;59.87
17615;BME280;8926;49.720;6.576;2023-07-24T07:58:32;98666.91;;;22.47;60.72
17615;BME280;8926;49.720;6.576;2023-07-24T08:00:58;98669.31;;;22.42;62.18
17615;BME280;8926;49.720;6.576;2023-07-24T08:03:27;98669.13;;;22.44;63.38
17615;BME280;8926;49.720;6.576;2023-07-24T08:05:56;98682.22;;;22.45;63.12
17615;BME280;8926;49.720;6.576;2023-07-24T08:08:22;98686.88;;;22.58;62.63
17615;BME280;8926;49.720;6.576;2023-07-24T08:10:47;98686.16;;;22.85;62.52
17615;BME280;8926;49.720;6.576;2023-07-24T08:13:13;98680.22;;;22.90;62.25
17615;BME280;8926;49.720;6.576;2023-07-24T08:15:38;98669.25;;;22.99;63.29
17615;BME280;8926;49.720;6.576;2023-07-24T08:18:04;98665.91;;;23.47;61.47
17615;BME280;8926;49.720;6.576;2023-07-24T08:20:30;98643.06;;;23.65;60.80
17615;BME280;8926;49.720;6.576;2023-07-24T08:22:55;98645.31;;;23.68;60.21
17615;BME280;8926;49.720;6.576;2023-07-24T08:25:21;98652.13;;;23.71;60.75
17615;BME280;8926;49.720;6.576;2023-07-24T08:27:46;98640.19;;;23.67;61.60
17615;BME280;8926;49.720;6.576;2023-07-24T08:30:11;98632.81;;;23.62;61.00
17615;BME280;8926;49.720;6.576;2023-07-24T08:32:36;98613.72;;;23.65;60.53
17615;BME280;8926;49.720;6.576;2023-07-24T08:35:02;98612.72;;;23.73;60.37
17615;BME280;8926;49.720;6.576;2023-07-24T08:37:27;98632.31;;;23.87;60.01
17615;BME280;8926;49.720;6.576;2023-07-24T08:39:53;98622.34;;;24.15;58.69
17615;BME280;8926;49.720;6.576;2023-07-24T08:42:18;98621.38;;;24.36;57.73
17615;BME280;8926;49.720;6.576;2023-07-24T08:44:45;98619.53;;;24.37;57.72
17615;BME280;8926;49.720;6.576;2023-07-24T08:47:10;98627.31;;;24.31;57.19
17615;BME280;8926;49.720;6.576;2023-07-24T08:49:38;98626.53;;;24.38;56.78
17615;BME280;8926;49.720;6.576;2023-07-24T08:52:06;98627.78;;;24.42;56.72
17615;BME280;8926;49.720;6.576;2023-07-24T08:54:32;98624.47;;;24.53;57.78
17615;BME280;8926;49.720;6.576;2023-07-24T08:57:01;98602.94;;;24.67;57.09
17615;BME280;8926;49.720;6.576;2023-07-24T08:59:27;98592.03;;;24.82;56.12
17615;BME280;8926;49.720;6.576;2023-07-24T09:01:52;98593.25;;;24.86;56.18
17615;BME280;8926;49.720;6.576;2023-07-24T09:04:18;98585.66;;;25.10;56.04
17615;BME280;8926;49.720;6.576;2023-07-24T09:06:43;98590.94;;;25.29;55.47
17615;BME280;8926;49.720;6.576;2023-07-24T09:09:14;98578.34;;;25.63;53.76
17615;BME280;8926;49.720;6.576;2023-07-24T09:11:51;98574.22;;;25.54;53.39
17615;BME280;8926;49.720;6.576;2023-07-24T09:14:24;98573.88;;;25.37;53.84
17615;BME280;8926;49.720;6.576;2023-07-24T09:17:01;98564.44;;;25.28;53.99
17615;BME280;8926;49.720;6.576;2023-07-24T09:19:27;98561.81;;;25.15;54.26
17615;BME280;8926;49.720;6.576;2023-07-24T09:21:52;98542.69;;;24.91;54.47
17615;BME280;8926;49.720;6.576;2023-07-24T09:24:17;98537.97;;;24.80;54.86
17615;BME280;8926;49.720;6.576;2023-07-24T09:26:47;98557.91;;;24.84;55.46
17615;BME280;8926;49.720;6.576;2023-07-24T09:29:13;98557.53;;;24.61;54.35
17615;BME280;8926;49.720;6.576;2023-07-24T09:31:38;98559.56;;;24.72;54.96
17615;BME280;8926;49.720;6.576;2023-07-24T09:34:04;98543.50;;;25.12;53.77
17615;BME280;8926;49.720;6.576;2023-07-24T09:36:37;98537.31;;;25.18;53.56
17615;BME280;8926;49.720;6.576;2023-07-24T09:39:03;98535.19;;;25.40;54.04
17615;BME280;8926;49.720;6.576;2023-07-24T09:41:31;98539.72;;;25.39;53.21
17615;BME280;8926;49.720;6.576;2023-07-24T09:43:59;98535.38;;;25.45;53.08
17615;BME280;8926;49.720;6.576;2023-07-24T09:46:25;98542.94;;;25.54;53.14
17615;BME280;8926;49.720;6.576;2023-07-24T09:48:51;98539.25;;;25.49;52.89
17615;BME280;8926;49.720;6.576;2023-07-24T09:51:16;98560.66;;;25.49;52.90
17615;BME280;8926;49.720;6.576;2023-07-24T09:53:52;98545.75;;;25.73;50.68
17615;BME280;8926;49.720;6.576;2023-07-24T09:56:20;98525.94;;;25.87;51.44
17615;BME280;8926;49.720;6.576;2023-07-24T09:58:46;98529.22;;;25.89;51.11
17615;BME280;8926;49.720;6.576;2023-07-24T10:01:14;98534.16;;;25.92;51.06
17615;BME280;8926;49.720;6.576;2023-07-24T10:03:46;98521.44;;;25.81;48.77
17615;BME280;8926;49.720;6.576;2023-07-24T10:06:12;98525.41;;;25.72;49.64
17615;BME280;8926;49.720;6.576;2023-07-24T10:08:40;98523.59;;;25.52;49.43
17615;BME280;8926;49.720;6.576;2023-07-24T10:11:06;98520.31;;;25.50;50.53
17615;BME280;8926;49.720;6.576;2023-07-24T10:13:33;98511.25;;;25.64;49.98
17615;BME280;8926;49.720;6.576;2023-07-24T10:16:01;98508.59;;;25.96;49.45
17615;BME280;8926;49.720;6.576;2023-07-24T10:18:28;98506.78;;;26.21;47.96
17615;BME280;8926;49.720;6.576;2023-07-24T10:21:06;98499.59;;;26.47;47.80
17615;BME280;8926;49.720;6.576;2023-07-24T10:23:34;98500.53;;;26.27;46.81
17615;BME280;8926;49.720;6.576;2023-07-24T10:26:04;98510.25;;;25.97;47.68
17615;BME280;8926;49.720;6.576;2023-07-24T10:28:34;98509.19;;;25.66;47.62
17615;BME280;8926;49.720;6.576;2023-07-24T10:31:04;98507.22;;;25.42;47.95
17615;BME280;8926;49.720;6.576;2023-07-24T10:33:34;98498.81;;;25.32;48.91
17615;BME280;8926;49.720;6.576;2023-07-24T10:36:07;98516.38;;;25.01;50.08
17615;BME280;8926;49.720;6.576;2023-07-24T10:38:38;98510.63;;;24.91;50.25
17615;BME280;8926;49.720;6.576;2023-07-24T10:41:04;98511.06;;;24.88;50.34
17615;BME280;8926;49.720;6.576;2023-07-24T10:43:46;98512.09;;;24.74;50.77
17615;BME280;8926;49.720;6.576;2023-07-24T10:46:12;98518.88;;;24.77;50.50
17615;BME280;8926;49.720;6.576;2023-07-24T10:48:43;98517.22;;;24.82;51.23
17615;BME280;8926;49.720;6.576;2023-07-24T10:51:09;98509.63;;;24.79;50.95
17615;BME280;8926;49.720;6.576;2023-07-24T10:53:36;98515.16;;;24.71;51.78
17615;BME280;8926;49.720;6.576;2023-07-24T10:56:03;98520.94;;;24.55;52.54
17615;BME280;8926;49.720;6.576;2023-07-24T10:58:29;98509.44;;;24.48;53.32
17615;BME280;8926;49.720;6.576;2023-07-24T11:00:55;98525.00;;;24.18;56.21
17615;BME280;8926;49.720;6.576;2023-07-24T11:03:21;98536.88;;;23.95;56.79
17615;BME280;8926;49.720;6.576;2023-07-24T11:05:47;98539.28;;;23.71;57.69
17615;BME280;8926;49.720;6.576;2023-07-24T11:08:17;98546.22;;;23.58;58.85
17615;BME280;8926;49.720;6.576;2023-07-24T11:10:53;98555.97;;;23.45;59.47
17615;BME280;8926;49.720;6.576;2023-07-24T11:13:22;98562.13;;;23.39;60.98
17615;BME280;8926;49.720;6.576;2023-07-24T11:15:49;98556.91;;;23.24;61.88
17615;BME280;8926;49.720;6.576;2023-07-24T11:18:14;98568.03;;;22.99;62.95
17615;BME280;8926;49.720;6.576;2023-07-24T11:20:45;98588.84;;;22.89;63.76
17615;BME280;8926;49.720;6.576;2023-07-24T11:23:11;98598.56;;;22.76;64.68
17615;BME280;8926;49.720;6.576;2023-07-24T11:25:37;98586.59;;;22.86;64.13
17615;BME280;8926;49.720;6.576;2023-07-24T11:28:05;98594.41;;;22.94;64.43
17615;BME280;8926;49.720;6.576;2023-07-24T11:30:31;98592.94;;;22.85;66.23
17615;BME280;8926;49.720;6.576;2023-07-24T11:32:57;98591.28;;;22.84;67.27
17615;BME280;8926;49.720;6.576;2023-07-24T11:35:25;98596.38;;;22.79;66.94
17615;BME280;8926;49.720;6.576;2023-07-24T11:37:50;98584.94;;;22.64;67.51
17615;BME280;8926;49.720;6.576;2023-07-24T11:40:16;98586.84;;;22.49;68.94
17615;BME280;8926;49.720;6.576;2023-07-24T11:42:44;98582.66;;;22.40;69.33
17615;BME280;8926;49.720;6.576;2023-07-24T11:45:10;98585.09;;;22.34;70.24
17615;BME280;8926;49.720;6.576;2023-07-24T11:47:45;98573.31;;;22.22;70.93
17615;BME280;8926;49.720;6.576;2023-07-24T11:50:11;98580.78;;;22.12;71.61
17615;BME280;8926;49.720;6.576;2023-07-24T11:52:38;98591.63;;;21.96;73.07
17615;BME280;8926;49.720;6.576;2023-07-24T11:55:04;98575.66;;;21.96;74.08
17615;BME280;8926;49.720;6.576;2023-07-24T11:57:29;98583.84;;;21.94;74.70
17615;BME280;8926;49.720;6.576;2023-07-24T11:59:55;98583.38;;;21.91;75.13
17615;BME280;8926;49.720;6.576;2023-07-24T12:02:25;98578.66;;;21.72;76.44
17615;BME280;8926;49.720;6.576;2023-07-24T12:04:58;98574.41;;;21.56;77.43
17615;BME280;8926;49.720;6.576;2023-07-24T12:07:32;98583.66;;;21.45;78.42
17615;BME280;8926;49.720;6.576;2023-07-24T12:09:58;98583.09;;;21.35;80.25
17615;BME280;8926;49.720;6.576;2023-07-24T12:12:23;98585.22;;;21.25;80.40
17615;BME280;8926;49.720;6.576;2023-07-24T12:14:48;98586.69;;;21.27;79.37
17615;BME280;8926;49.720;6.576;2023-07-24T12:17:18;98590.44;;;21.33;81.24
17615;BME280;8926;49.720;6.576;2023-07-24T12:19:43;98578.63;;;21.50;79.24
17615;BME280;8926;49.720;6.576;2023-07-24T12:22:09;98566.50;;;21.84;79.17
17615;BME280;8926;49.720;6.576;2023-07-24T12:24:34;98565.59;;;22.06;78.21
17615;BME280;8926;49.720;6.576;2023-07-24T12:26:59;98563.69;;;22.21;77.39
17615;BME280;8926;49.720;6.576;2023-07-24T12:29:25;98576.50;;;22.32;76.24
17615;BME280;8926;49.720;6.576;2023-07-24T12:31:50;98568.59;;;22.46;76.28
17615;BME280;8926;49.720;6.576;2023-07-24T12:34:16;98562.88;;;22.70;74.75
17615;BME280;8926;49.720;6.576;2023-07-24T12:36:41;98562.22;;;22.89;74.15
17615;BME280;8926;49.720;6.576;2023-07-24T12:39:06;98551.72;;;23.16;75.20
17615;BME280;8926;49.720;6.576;2023-07-24T12:41:32;98552.59;;;23.23;73.47
17615;BME280;8926;49.720;6.576;2023-07-24T12:43:57;98559.91;;;23.14;72.78
17615;BME280;8926;49.720;6.576;2023-07-24T12:46:22;98554.22;;;23.24;73.76
17615;BME280;8926;49.720;6.576;2023-07-24T12:48:48;98547.50;;;23.28;73.23
17615;BME280;8926;49.720;6.576;2023-07-24T12:51:13;98539.97;;;23.45;71.94
17615;BME280;8926;49.720;6.576;2023-07-24T12:53:38;98543.22;;;23.40;70.90
17615;BME280;8926;49.720;6.576;2023-07-24T12:56:03;98537.09;;;23.46;70.08
17615;BME280;8926;49.720;6.576;2023-07-24T12:58:29;98533.38;;;23.34;67.73
17615;BME280;8926;49.720;6.576;2023-07-24T13:00:54;98533.78;;;23.31;69.66
17615;BME280;8926;49.720;6.576;2023-07-24T13:03:19;98538.31;;;23.37;69.26
17615;BME280;8926;49.720;6.576;2023-07-24T13:05:46;98533.81;;;23.44;69.04
17615;BME280;8926;49.720;6.576;2023-07-24T13:08:12;98524.50;;;23.61;68.65